sensor_id;sensor_type;location;lat;lon;timestamp;P1;durP1;ratioP1;P2;durP2;ratioP2
40170;SDS011;37650;52.790;18.268;2023-07-09T00:01:45;7.50;;;2.80;;
40170;SDS011;37650;52.790;18.268;2023-07-09T00:05:11;5.30;;;2.50;;
40170;SDS011;37650;52.790;18.268;2023-07-09T00:08:35;6.30;;;2.70;;
40170;SDS011;37650;52.790;18.268;2023-07-09T00:11:59;5.10;;;2.60;;
40170;SDS011;37650;52.790;18.268;2023-07-09T00:15:24;5.90;;;3.10;;
40170;SDS011;37650;52.790;18.268;2023-07-09T00:18:46;6.10;;;2.80;;
40170;SDS011;37650;52.790;18.268;2023-07-09T00:22:10;7.10;;;3.10;;
40170;SDS011;37650;52.790;18.268;2023-07-09T00:25:36;6.10;;;3.30;;
40170;SDS011;37650;52.790;18.268;2023-07-09T00:28:58;9.60;;;4.10;;
40170;SDS011;37650;52.790;18.268;2023-07-09T00:32:20;7.10;;;3.30;;
40170;SDS011;37650;52.790;18.268;2023-07-09T00:35:42;6.80;;;3.60;;
40170;SDS011;37650;52.790;18.268;2023-07-09T00:46:07;4.00;;;2.30;;
40170;SDS011;37650;52.790;18.268;2023-07-09T00:49:34;3.70;;;2.20;;
40170;SDS011;37650;52.790;18.268;2023-07-09T00:53:15;6.10;;;2.90;;
40170;SDS011;37650;52.790;18.268;2023-07-09T00:56:42;3.80;;;2.40;;
40170;SDS011;37650;52.790;18.268;2023-07-09T01:00:07;6.00;;;2.80;;
40170;SDS011;37650;52.790;18.268;2023-07-09T01:03:35;6.00;;;2.80;;
40170;SDS011;37650;52.790;18.268;2023-07-09T01:07:05;5.20;;;3.20;;
40170;SDS011;37650;52.790;18.268;2023-07-09T01:10:27;5.30;;;3.10;;
40170;SDS011;37650;52.790;18.268;2023-07-09T01:13:51;6.70;;;4.00;;
40170;SDS011;37650;52.790;18.268;2023-07-09T01:17:15;6.00;;;3.10;;
40170;SDS011;37650;52.790;18.268;2023-07-09T01:20:35;8.20;;;3.00;;
40170;SDS011;37650;52.790;18.268;2023-07-09T01:24:10;5.00;;;2.70;;
40170;SDS011;37650;52.790;18.268;2023-07-09T01:27:56;5.70;;;2.90;;
40170;SDS011;37650;52.790;18.268;2023-07-09T01:31:19;5.70;;;2.80;;
40170;SDS011;37650;52.790;18.268;2023-07-09T01:34:45;6.10;;;3.10;;
40170;SDS011;37650;52.790;18.268;2023-07-09T01:38:08;5.20;;;2.90;;
40170;SDS011;37650;52.790;18.268;2023-07-09T01:41:30;5.50;;;3.10;;
40170;SDS011;37650;52.790;18.268;2023-07-09T01:44:54;5.80;;;3.10;;
40170;SDS011;37650;52.790;18.268;2023-07-09T01:48:17;6.40;;;2.90;;
40170;SDS011;37650;52.790;18.268;2023-07-09T01:51:40;5.90;;;2.70;;
40170;SDS011;37650;52.790;18.268;2023-07-09T01:55:02;5.70;;;2.70;;
40170;SDS011;37650;52.790;18.268;2023-07-09T01:58:25;4.90;;;2.70;;
40170;SDS011;37650;52.790;18.268;2023-07-09T02:01:46;6.20;;;3.10;;
40170;SDS011;37650;52.790;18.268;2023-07-09T02:05:07;5.80;;;2.70;;
40170;SDS011;37650;52.790;18.268;2023-07-09T02:08:28;5.90;;;2.90;;
40170;SDS011;37650;52.790;18.268;2023-07-09T02:11:49;6.20;;;2.70;;
40170;SDS011;37650;52.790;18.268;2023-07-09T02:15:11;6.00;;;2.80;;
40170;SDS011;37650;52.790;18.268;2023-07-09T02:18:33;4.30;;;2.60;;
40170;SDS011;37650;52.790;18.268;2023-07-09T02:21:57;7.00;;;2.60;;
40170;SDS011;37650;52.790;18.268;2023-07-09T02:25:18;5.40;;;2.90;;
40170;SDS011;37650;52.790;18.268;2023-07-09T02:28:40;4.80;;;3.00;;
40170;SDS011;37650;52.790;18.268;2023-07-09T02:32:01;7.20;;;2.90;;
40170;SDS011;37650;52.790;18.268;2023-07-09T02:35:24;6.20;;;2.80;;
40170;SDS011;37650;52.790;18.268;2023-07-09T02:38:46;6.00;;;3.00;;
40170;SDS011;37650;52.790;18.268;2023-07-09T02:42:09;5.70;;;3.30;;
40170;SDS011;37650;52.790;18.268;2023-07-09T02:45:32;5.90;;;2.70;;
40170;SDS011;37650;52.790;18.268;2023-07-09T02:48:53;5.80;;;3.10;;
40170;SDS011;37650;52.790;18.268;2023-07-09T02:52:14;4.70;;;2.80;;
40170;SDS011;37650;52.790;18.268;2023-07-09T02:55:35;7.20;;;3.30;;
40170;SDS011;37650;52.790;18.268;2023-07-09T02:58:56;5.50;;;3.30;;
40170;SDS011;37650;52.790;18.268;2023-07-09T03:02:19;6.60;;;3.80;;
40170;SDS011;37650;52.790;18.268;2023-07-09T03:05:40;9.20;;;7.10;;
40170;SDS011;37650;52.790;18.268;2023-07-09T03:09:01;11.10;;;6.30;;
40170;SDS011;37650;52.790;18.268;2023-07-09T03:12:23;10.70;;;5.70;;
40170;SDS011;37650;52.790;18.268;2023-07-09T03:15:53;15.20;;;11.50;;
40170;SDS011;37650;52.790;18.268;2023-07-09T03:19:16;30.70;;;25.10;;
40170;SDS011;37650;52.790;18.268;2023-07-09T03:22:37;25.30;;;21.30;;
40170;SDS011;37650;52.790;18.268;2023-07-09T03:25:58;24.60;;;17.50;;
40170;SDS011;37650;52.790;18.268;2023-07-09T03:29:20;59.10;;;32.40;;
40170;SDS011;37650;52.790;18.268;2023-07-09T03:32:42;107.50;;;45.90;;
40170;SDS011;37650;52.790;18.268;2023-07-09T03:36:04;116.70;;;44.00;;
40170;SDS011;37650;52.790;18.268;2023-07-09T03:39:26;109.20;;;42.60;;
40170;SDS011;37650;52.790;18.268;2023-07-09T03:42:48;63.70;;;25.10;;
40170;SDS011;37650;52.790;18.268;2023-07-09T03:46:09;52.50;;;22.80;;
40170;SDS011;37650;52.790;18.268;2023-07-09T03:49:30;51.40;;;24.10;;
40170;SDS011;37650;52.790;18.268;2023-07-09T03:52:52;46.00;;;19.40;;
40170;SDS011;37650;52.790;18.268;2023-07-09T03:56:13;24.50;;;12.20;;
40170;SDS011;37650;52.790;18.268;2023-07-09T03:59:34;18.90;;;7.70;;
40170;SDS011;37650;52.790;18.268;2023-07-09T04:02:55;15.70;;;6.80;;
40170;SDS011;37650;52.790;18.268;2023-07-09T04:06:17;15.10;;;7.40;;
40170;SDS011;37650;52.790;18.268;2023-07-09T04:09:38;11.80;;;5.10;;
40170;SDS011;37650;52.790;18.268;2023-07-09T04:12:59;14.80;;;6.60;;
40170;SDS011;37650;52.790;18.268;2023-07-09T04:16:22;30.90;;;11.50;;
40170;SDS011;37650;52.790;18.268;2023-07-09T04:19:43;19.90;;;8.00;;
40170;SDS011;37650;52.790;18.268;2023-07-09T04:23:05;14.00;;;5.40;;
40170;SDS011;37650;52.790;18.268;2023-07-09T04:26:27;12.30;;;4.80;;
40170;SDS011;37650;52.790;18.268;2023-07-09T04:29:49;10.60;;;4.50;;
40170;SDS011;37650;52.790;18.268;2023-07-09T04:33:10;6.70;;;3.80;;
40170;SDS011;37650;52.790;18.268;2023-07-09T04:36:31;8.00;;;3.00;;
40170;SDS011;37650;52.790;18.268;2023-07-09T04:39:53;5.20;;;3.00;;
40170;SDS011;37650;52.790;18.268;2023-07-09T04:43:14;6.20;;;2.90;;
40170;SDS011;37650;52.790;18.268;2023-07-09T04:46:35;7.80;;;3.30;;
40170;SDS011;37650;52.790;18.268;2023-07-09T04:49:56;5.40;;;2.60;;
40170;SDS011;37650;52.790;18.268;2023-07-09T04:53:18;6.70;;;3.00;;
40170;SDS011;37650;52.790;18.268;2023-07-09T04:56:39;6.80;;;3.40;;
40170;SDS011;37650;52.790;18.268;2023-07-09T05:00:00;6.10;;;3.00;;
40170;SDS011;37650;52.790;18.268;2023-07-09T05:03:21;6.80;;;3.40;;
40170;SDS011;37650;52.790;18.268;2023-07-09T05:06:42;10.10;;;3.40;;
40170;SDS011;37650;52.790;18.268;2023-07-09T05:10:04;7.30;;;3.20;;
40170;SDS011;37650;52.790;18.268;2023-07-09T05:13:26;6.00;;;3.10;;
40170;SDS011;37650;52.790;18.268;2023-07-09T05:16:48;8.50;;;3.20;;
40170;SDS011;37650;52.790;18.268;2023-07-09T05:20:09;8.80;;;3.00;;
40170;SDS011;37650;52.790;18.268;2023-07-09T05:23:31;5.50;;;2.80;;
40170;SDS011;37650;52.790;18.268;2023-07-09T05:26:52;6.20;;;3.10;;
40170;SDS011;37650;52.790;18.268;2023-07-09T05:30:13;8.30;;;3.20;;
40170;SDS011;37650;52.790;18.268;2023-07-09T05:33:35;5.40;;;2.80;;
40170;SDS011;37650;52.790;18.268;2023-07-09T05:36:56;6.90;;;3.60;;
40170;SDS011;37650;52.790;18.268;2023-07-09T05:40:17;9.00;;;2.90;;
40170;SDS011;37650;52.790;18.268;2023-07-09T05:43:38;6.00;;;3.00;;
40170;SDS011;37650;52.790;18.268;2023-07-09T05:47:00;4.50;;;2.50;;
40170;SDS011;37650;52.790;18.268;2023-07-09T05:50:21;5.60;;;2.70;;
40170;SDS011;37650;52.790;18.268;2023-07-09T05:53:43;4.90;;;2.80;;
40170;SDS011;37650;52.790;18.268;2023-07-09T05:57:04;6.50;;;3.10;;
40170;SDS011;37650;52.790;18.268;2023-07-09T06:00:25;7.70;;;3.10;;
40170;SDS011;37650;52.790;18.268;2023-07-09T06:03:47;6.50;;;2.50;;
40170;SDS011;37650;52.790;18.268;2023-07-09T06:07:08;5.90;;;2.50;;
40170;SDS011;37650;52.790;18.268;2023-07-09T06:10:30;6.20;;;2.90;;
40170;SDS011;37650;52.790;18.268;2023-07-09T06:13:51;6.90;;;2.30;;
40170;SDS011;37650;52.790;18.268;2023-07-09T06:20:33;3.80;;;2.00;;
40170;SDS011;37650;52.790;18.268;2023-07-09T06:23:54;4.00;;;2.20;;
40170;SDS011;37650;52.790;18.268;2023-07-09T06:27:17;6.90;;;1.90;;
40170;SDS011;37650;52.790;18.268;2023-07-09T06:30:38;3.10;;;1.80;;
40170;SDS011;37650;52.790;18.268;2023-07-09T06:33:59;3.60;;;1.60;;
40170;SDS011;37650;52.790;18.268;2023-07-09T06:37:20;2.70;;;1.70;;
40170;SDS011;37650;52.790;18.268;2023-07-09T06:40:42;3.80;;;1.60;;
40170;SDS011;37650;52.790;18.268;2023-07-09T06:47:25;2.70;;;1.50;;
40170;SDS011;37650;52.790;18.268;2023-07-09T06:50:47;3.80;;;1.50;;
40170;SDS011;37650;52.790;18.268;2023-07-09T06:54:09;3.90;;;1.70;;
40170;SDS011;37650;52.790;18.268;2023-07-09T06:57:29;3.90;;;1.50;;
40170;SDS011;37650;52.790;18.268;2023-07-09T07:00:51;4.40;;;1.30;;
40170;SDS011;37650;52.790;18.268;2023-07-09T07:04:12;4.50;;;1.70;;
40170;SDS011;37650;52.790;18.268;2023-07-09T07:07:33;4.90;;;1.70;;
40170;SDS011;37650;52.790;18.268;2023-07-09T07:10:55;3.70;;;1.80;;
40170;SDS011;37650;52.790;18.268;2023-07-09T07:14:22;3.40;;;1.50;;
40170;SDS011;37650;52.790;18.268;2023-07-09T07:17:44;4.90;;;1.90;;
40170;SDS011;37650;52.790;18.268;2023-07-09T07:21:06;2.90;;;1.40;;
40170;SDS011;37650;52.790;18.268;2023-07-09T07:24:27;3.30;;;1.60;;
40170;SDS011;37650;52.790;18.268;2023-07-09T07:27:48;2.70;;;1.40;;
40170;SDS011;37650;52.790;18.268;2023-07-09T07:31:09;3.30;;;1.70;;
40170;SDS011;37650;52.790;18.268;2023-07-09T07:37:51;4.10;;;1.50;;
40170;SDS011;37650;52.790;18.268;2023-07-09T07:44:33;3.50;;;1.50;;
40170;SDS011;37650;52.790;18.268;2023-07-09T07:51:16;2.90;;;1.60;;
40170;SDS011;37650;52.790;18.268;2023-07-09T07:54:37;3.20;;;1.50;;
40170;SDS011;37650;52.790;18.268;2023-07-09T07:57:58;2.90;;;1.30;;
40170;SDS011;37650;52.790;18.268;2023-07-09T08:01:23;4.20;;;1.60;;
40170;SDS011;37650;52.790;18.268;2023-07-09T08:04:44;2.80;;;1.40;;
40170;SDS011;37650;52.790;18.268;2023-07-09T08:08:05;3.10;;;1.60;;
40170;SDS011;37650;52.790;18.268;2023-07-09T08:11:27;3.60;;;1.60;;
40170;SDS011;37650;52.790;18.268;2023-07-09T08:14:50;3.20;;;1.60;;
40170;SDS011;37650;52.790;18.268;2023-07-09T08:18:11;3.60;;;1.30;;
40170;SDS011;37650;52.790;18.268;2023-07-09T08:21:32;3.30;;;1.20;;
40170;SDS011;37650;52.790;18.268;2023-07-09T08:28:14;2.00;;;1.10;;
40170;SDS011;37650;52.790;18.268;2023-07-09T08:31:36;2.40;;;1.30;;
40170;SDS011;37650;52.790;18.268;2023-07-09T08:34:57;3.00;;;1.30;;
40170;SDS011;37650;52.790;18.268;2023-07-09T08:38:18;3.10;;;1.50;;
40170;SDS011;37650;52.790;18.268;2023-07-09T08:41:45;4.20;;;1.60;;
40170;SDS011;37650;52.790;18.268;2023-07-09T08:48:41;3.10;;;1.20;;
40170;SDS011;37650;52.790;18.268;2023-07-09T08:52:30;5.20;;;1.80;;
40170;SDS011;37650;52.790;18.268;2023-07-09T08:55:53;3.00;;;1.40;;
40170;SDS011;37650;52.790;18.268;2023-07-09T08:59:15;2.90;;;1.20;;
40170;SDS011;37650;52.790;18.268;2023-07-09T09:02:41;3.10;;;1.20;;
40170;SDS011;37650;52.790;18.268;2023-07-09T09:06:28;2.80;;;1.60;;
40170;SDS011;37650;52.790;18.268;2023-07-09T09:13:22;2.20;;;1.30;;
40170;SDS011;37650;52.790;18.268;2023-07-09T09:16:49;2.80;;;1.30;;
40170;SDS011;37650;52.790;18.268;2023-07-09T09:20:20;3.70;;;1.40;;
40170;SDS011;37650;52.790;18.268;2023-07-09T09:23:50;3.70;;;1.40;;
40170;SDS011;37650;52.790;18.268;2023-07-09T09:27:13;2.60;;;1.40;;
40170;SDS011;37650;52.790;18.268;2023-07-09T09:30:34;5.80;;;1.80;;
40170;SDS011;37650;52.790;18.268;2023-07-09T09:33:56;3.50;;;1.60;;
40170;SDS011;37650;52.790;18.268;2023-07-09T09:37:28;4.50;;;1.20;;
40170;SDS011;37650;52.790;18.268;2023-07-09T09:40:51;2.80;;;1.10;;
40170;SDS011;37650;52.790;18.268;2023-07-09T09:44:21;3.60;;;1.30;;
40170;SDS011;37650;52.790;18.268;2023-07-09T09:47:46;2.00;;;1.20;;
40170;SDS011;37650;52.790;18.268;2023-07-09T09:51:09;1.80;;;1.00;;
40170;SDS011;37650;52.790;18.268;2023-07-09T09:54:31;2.20;;;1.10;;
40170;SDS011;37650;52.790;18.268;2023-07-09T09:57:53;1.70;;;0.90;;
40170;SDS011;37650;52.790;18.268;2023-07-09T10:01:15;2.00;;;1.10;;
40170;SDS011;37650;52.790;18.268;2023-07-09T10:04:38;3.40;;;1.20;;
40170;SDS011;37650;52.790;18.268;2023-07-09T10:08:03;3.00;;;1.40;;
40170;SDS011;37650;52.790;18.268;2023-07-09T10:15:32;1.90;;;1.00;;
40170;SDS011;37650;52.790;18.268;2023-07-09T10:19:21;4.00;;;1.20;;
40170;SDS011;37650;52.790;18.268;2023-07-09T10:26:38;3.20;;;1.00;;
40170;SDS011;37650;52.790;18.268;2023-07-09T10:30:21;2.20;;;1.10;;
40170;SDS011;37650;52.790;18.268;2023-07-09T10:41:09;4.70;;;1.20;;
40170;SDS011;37650;52.790;18.268;2023-07-09T10:44:33;2.70;;;1.20;;
40170;SDS011;37650;52.790;18.268;2023-07-09T10:48:08;2.70;;;1.10;;
40170;SDS011;37650;52.790;18.268;2023-07-09T10:59:32;2.20;;;1.20;;
40170;SDS011;37650;52.790;18.268;2023-07-09T11:03:00;3.10;;;1.20;;
40170;SDS011;37650;52.790;18.268;2023-07-09T11:06:28;1.90;;;1.10;;
40170;SDS011;37650;52.790;18.268;2023-07-09T11:10:03;1.50;;;1.10;;
40170;SDS011;37650;52.790;18.268;2023-07-09T11:13:39;2.90;;;1.00;;
40170;SDS011;37650;52.790;18.268;2023-07-09T11:17:13;3.20;;;1.30;;
40170;SDS011;37650;52.790;18.268;2023-07-09T11:20:41;2.40;;;1.10;;
40170;SDS011;37650;52.790;18.268;2023-07-09T11:24:04;1.60;;;1.20;;
40170;SDS011;37650;52.790;18.268;2023-07-09T11:27:27;1.60;;;1.00;;
40170;SDS011;37650;52.790;18.268;2023-07-09T11:30:52;2.00;;;1.00;;
40170;SDS011;37650;52.790;18.268;2023-07-09T11:37:45;3.60;;;1.10;;
40170;SDS011;37650;52.790;18.268;2023-07-09T11:44:46;1.80;;;1.00;;
40170;SDS011;37650;52.790;18.268;2023-07-09T11:48:22;1.60;;;0.90;;
40170;SDS011;37650;52.790;18.268;2023-07-09T11:51:50;1.70;;;1.10;;
40170;SDS011;37650;52.790;18.268;2023-07-09T11:58:53;3.40;;;1.20;;
40170;SDS011;37650;52.790;18.268;2023-07-09T12:02:17;3.10;;;1.00;;
40170;SDS011;37650;52.790;18.268;2023-07-09T12:05:40;2.40;;;1.30;;
40170;SDS011;37650;52.790;18.268;2023-07-09T12:09:05;3.00;;;1.00;;
40170;SDS011;37650;52.790;18.268;2023-07-09T12:12:26;5.00;;;1.30;;
40170;SDS011;37650;52.790;18.268;2023-07-09T12:15:50;2.70;;;1.00;;
40170;SDS011;37650;52.790;18.268;2023-07-09T12:19:12;1.40;;;1.00;;
40170;SDS011;37650;52.790;18.268;2023-07-09T12:22:34;1.50;;;0.90;;
40170;SDS011;37650;52.790;18.268;2023-07-09T12:25:59;4.10;;;1.10;;
40170;SDS011;37650;52.790;18.268;2023-07-09T12:29:26;2.30;;;1.00;;
40170;SDS011;37650;52.790;18.268;2023-07-09T12:32:54;1.90;;;1.20;;
40170;SDS011;37650;52.790;18.268;2023-07-09T12:36:16;1.90;;;1.00;;
40170;SDS011;37650;52.790;18.268;2023-07-09T12:39:39;1.90;;;1.10;;
40170;SDS011;37650;52.790;18.268;2023-07-09T12:43:00;3.60;;;1.10;;
40170;SDS011;37650;52.790;18.268;2023-07-09T12:46:22;2.40;;;1.20;;
40170;SDS011;37650;52.790;18.268;2023-07-09T12:49:44;1.50;;;1.00;;
40170;SDS011;37650;52.790;18.268;2023-07-09T12:53:18;2.70;;;1.20;;
40170;SDS011;37650;52.790;18.268;2023-07-09T12:56:43;1.90;;;1.10;;
40170;SDS011;37650;52.790;18.268;2023-07-09T13:00:08;2.60;;;1.00;;
40170;SDS011;37650;52.790;18.268;2023-07-09T13:03:36;2.30;;;1.30;;
40170;SDS011;37650;52.790;18.268;2023-07-09T13:06:58;3.00;;;1.30;;
40170;SDS011;37650;52.790;18.268;2023-07-09T13:10:27;2.70;;;1.00;;
40170;SDS011;37650;52.790;18.268;2023-07-09T13:13:56;2.00;;;1.00;;
40170;SDS011;37650;52.790;18.268;2023-07-09T13:17:19;4.00;;;1.20;;
40170;SDS011;37650;52.790;18.268;2023-07-09T13:20:41;2.50;;;1.50;;
40170;SDS011;37650;52.790;18.268;2023-07-09T13:24:08;2.10;;;1.00;;
40170;SDS011;37650;52.790;18.268;2023-07-09T13:27:44;3.80;;;1.00;;
40170;SDS011;37650;52.790;18.268;2023-07-09T13:31:10;1.90;;;1.10;;
40170;SDS011;37650;52.790;18.268;2023-07-09T13:34:35;3.00;;;1.10;;
40170;SDS011;37650;52.790;18.268;2023-07-09T13:37:56;1.70;;;1.00;;
40170;SDS011;37650;52.790;18.268;2023-07-09T13:41:18;2.00;;;1.20;;
40170;SDS011;37650;52.790;18.268;2023-07-09T13:44:43;2.50;;;1.00;;
40170;SDS011;37650;52.790;18.268;2023-07-09T13:48:10;3.50;;;1.20;;
40170;SDS011;37650;52.790;18.268;2023-07-09T13:51:34;1.10;;;0.90;;
40170;SDS011;37650;52.790;18.268;2023-07-09T13:54:55;2.40;;;1.00;;
40170;SDS011;37650;52.790;18.268;2023-07-09T13:58:18;2.00;;;1.00;;
40170;SDS011;37650;52.790;18.268;2023-07-09T14:01:41;2.40;;;1.10;;
40170;SDS011;37650;52.790;18.268;2023-07-09T14:05:04;2.30;;;1.00;;
40170;SDS011;37650;52.790;18.268;2023-07-09T14:08:27;2.50;;;0.90;;
40170;SDS011;37650;52.790;18.268;2023-07-09T14:11:49;3.30;;;1.00;;
40170;SDS011;37650;52.790;18.268;2023-07-09T14:15:14;2.20;;;1.10;;
40170;SDS011;37650;52.790;18.268;2023-07-09T14:18:39;1.30;;;1.10;;
40170;SDS011;37650;52.790;18.268;2023-07-09T14:22:01;1.40;;;1.00;;
40170;SDS011;37650;52.790;18.268;2023-07-09T14:25:24;2.30;;;1.10;;
40170;SDS011;37650;52.790;18.268;2023-07-09T14:28:45;1.70;;;0.90;;
40170;SDS011;37650;52.790;18.268;2023-07-09T14:32:11;1.80;;;1.20;;
40170;SDS011;37650;52.790;18.268;2023-07-09T14:35:56;1.70;;;1.00;;
40170;SDS011;37650;52.790;18.268;2023-07-09T14:39:18;2.10;;;1.20;;
40170;SDS011;37650;52.790;18.268;2023-07-09T14:42:41;2.40;;;1.30;;
40170;SDS011;37650;52.790;18.268;2023-07-09T14:46:03;2.80;;;1.40;;
40170;SDS011;37650;52.790;18.268;2023-07-09T14:49:26;1.40;;;0.90;;
40170;SDS011;37650;52.790;18.268;2023-07-09T14:52:48;2.20;;;1.30;;
40170;SDS011;37650;52.790;18.268;2023-07-09T14:56:11;2.40;;;1.40;;
40170;SDS011;37650;52.790;18.268;2023-07-09T14:59:34;4.00;;;1.50;;
40170;SDS011;37650;52.790;18.268;2023-07-09T15:02:56;3.70;;;1.60;;
40170;SDS011;37650;52.790;18.268;2023-07-09T15:09:37;3.80;;;2.80;;
40170;SDS011;37650;52.790;18.268;2023-07-09T15:12:59;5.00;;;1.30;;
40170;SDS011;37650;52.790;18.268;2023-07-09T15:16:20;4.00;;;1.30;;
40170;SDS011;37650;52.790;18.268;2023-07-09T15:19:41;1.90;;;1.10;;
40170;SDS011;37650;52.790;18.268;2023-07-09T15:23:02;1.90;;;1.30;;
40170;SDS011;37650;52.790;18.268;2023-07-09T15:26:24;2.50;;;1.10;;
40170;SDS011;37650;52.790;18.268;2023-07-09T15:29:45;1.90;;;1.20;;
40170;SDS011;37650;52.790;18.268;2023-07-09T15:33:09;2.10;;;1.20;;
40170;SDS011;37650;52.790;18.268;2023-07-09T15:36:36;2.10;;;1.10;;
40170;SDS011;37650;52.790;18.268;2023-07-09T15:39:57;3.10;;;1.50;;
40170;SDS011;37650;52.790;18.268;2023-07-09T15:43:19;2.90;;;1.40;;
40170;SDS011;37650;52.790;18.268;2023-07-09T15:46:40;2.20;;;1.20;;
40170;SDS011;37650;52.790;18.268;2023-07-09T15:53:40;2.10;;;1.30;;
40170;SDS011;37650;52.790;18.268;2023-07-09T15:57:01;5.40;;;1.30;;
40170;SDS011;37650;52.790;18.268;2023-07-09T16:00:24;1.80;;;1.20;;
40170;SDS011;37650;52.790;18.268;2023-07-09T16:03:48;2.40;;;1.30;;
40170;SDS011;37650;52.790;18.268;2023-07-09T16:07:11;2.20;;;1.30;;
40170;SDS011;37650;52.790;18.268;2023-07-09T16:10:32;2.50;;;1.30;;
40170;SDS011;37650;52.790;18.268;2023-07-09T16:13:54;3.10;;;1.00;;
40170;SDS011;37650;52.790;18.268;2023-07-09T16:17:15;3.80;;;1.20;;
40170;SDS011;37650;52.790;18.268;2023-07-09T16:20:37;3.30;;;1.30;;
40170;SDS011;37650;52.790;18.268;2023-07-09T16:27:22;3.80;;;1.50;;
40170;SDS011;37650;52.790;18.268;2023-07-09T16:30:45;5.40;;;1.80;;
40170;SDS011;37650;52.790;18.268;2023-07-09T16:34:07;4.40;;;2.20;;
40170;SDS011;37650;52.790;18.268;2023-07-09T16:37:28;3.50;;;1.80;;
40170;SDS011;37650;52.790;18.268;2023-07-09T16:40:50;3.20;;;1.50;;
40170;SDS011;37650;52.790;18.268;2023-07-09T16:44:11;3.10;;;1.80;;
40170;SDS011;37650;52.790;18.268;2023-07-09T16:47:33;4.00;;;1.80;;
40170;SDS011;37650;52.790;18.268;2023-07-09T16:50:54;4.10;;;2.00;;
40170;SDS011;37650;52.790;18.268;2023-07-09T16:54:17;5.20;;;3.10;;
40170;SDS011;37650;52.790;18.268;2023-07-09T16:57:38;3.20;;;1.90;;
40170;SDS011;37650;52.790;18.268;2023-07-09T17:01:00;3.50;;;2.20;;
40170;SDS011;37650;52.790;18.268;2023-07-09T17:04:24;4.00;;;1.80;;
40170;SDS011;37650;52.790;18.268;2023-07-09T17:07:51;2.70;;;1.40;;
40170;SDS011;37650;52.790;18.268;2023-07-09T17:11:13;3.20;;;1.30;;
40170;SDS011;37650;52.790;18.268;2023-07-09T17:17:55;2.70;;;1.60;;
40170;SDS011;37650;52.790;18.268;2023-07-09T17:24:38;3.10;;;1.40;;
40170;SDS011;37650;52.790;18.268;2023-07-09T17:28:00;2.90;;;1.70;;
40170;SDS011;37650;52.790;18.268;2023-07-09T17:31:22;3.10;;;1.50;;
40170;SDS011;37650;52.790;18.268;2023-07-09T17:34:43;3.00;;;1.60;;
40170;SDS011;37650;52.790;18.268;2023-07-09T17:38:12;6.00;;;1.30;;
40170;SDS011;37650;52.790;18.268;2023-07-09T17:41:35;2.80;;;1.40;;
40170;SDS011;37650;52.790;18.268;2023-07-09T17:44:57;3.00;;;1.60;;
40170;SDS011;37650;52.790;18.268;2023-07-09T17:51:50;3.00;;;1.70;;
40170;SDS011;37650;52.790;18.268;2023-07-09T17:55:13;4.20;;;1.90;;
40170;SDS011;37650;52.790;18.268;2023-07-09T17:58:36;3.30;;;1.40;;
40170;SDS011;37650;52.790;18.268;2023-07-09T18:02:02;2.80;;;1.40;;
40170;SDS011;37650;52.790;18.268;2023-07-09T18:05:32;3.50;;;1.40;;
40170;SDS011;37650;52.790;18.268;2023-07-09T18:08:54;3.00;;;1.30;;
40170;SDS011;37650;52.790;18.268;2023-07-09T18:12:16;4.40;;;1.50;;
40170;SDS011;37650;52.790;18.268;2023-07-09T18:15:40;3.60;;;1.50;;
40170;SDS011;37650;52.790;18.268;2023-07-09T18:19:03;4.00;;;1.60;;
40170;SDS011;37650;52.790;18.268;2023-07-09T18:22:25;7.80;;;1.50;;
40170;SDS011;37650;52.790;18.268;2023-07-09T18:25:52;3.40;;;1.40;;
40170;SDS011;37650;52.790;18.268;2023-07-09T18:29:35;3.30;;;1.50;;
40170;SDS011;37650;52.790;18.268;2023-07-09T18:32:58;4.50;;;1.50;;
40170;SDS011;37650;52.790;18.268;2023-07-09T18:36:23;3.10;;;1.40;;
40170;SDS011;37650;52.790;18.268;2023-07-09T18:43:12;2.40;;;1.30;;
40170;SDS011;37650;52.790;18.268;2023-07-09T18:46:36;3.20;;;1.50;;
40170;SDS011;37650;52.790;18.268;2023-07-09T18:49:58;2.90;;;1.40;;
40170;SDS011;37650;52.790;18.268;2023-07-09T18:56:44;2.60;;;1.40;;
40170;SDS011;37650;52.790;18.268;2023-07-09T19:00:08;3.70;;;1.60;;
40170;SDS011;37650;52.790;18.268;2023-07-09T19:03:34;3.50;;;1.70;;
40170;SDS011;37650;52.790;18.268;2023-07-09T19:06:57;3.90;;;1.60;;
40170;SDS011;37650;52.790;18.268;2023-07-09T19:10:20;2.50;;;1.50;;
40170;SDS011;37650;52.790;18.268;2023-07-09T19:13:43;6.30;;;1.80;;
40170;SDS011;37650;52.790;18.268;2023-07-09T19:17:06;4.00;;;1.60;;
40170;SDS011;37650;52.790;18.268;2023-07-09T19:20:33;3.10;;;1.80;;
40170;SDS011;37650;52.790;18.268;2023-07-09T19:23:54;4.50;;;1.90;;
40170;SDS011;37650;52.790;18.268;2023-07-09T19:30:37;3.90;;;1.70;;
40170;SDS011;37650;52.790;18.268;2023-07-09T19:34:00;2.90;;;1.50;;
40170;SDS011;37650;52.790;18.268;2023-07-09T19:37:23;3.70;;;2.20;;
40170;SDS011;37650;52.790;18.268;2023-07-09T19:40:46;6.50;;;2.10;;
40170;SDS011;37650;52.790;18.268;2023-07-09T19:44:07;6.00;;;1.90;;
40170;SDS011;37650;52.790;18.268;2023-07-09T19:47:31;5.00;;;1.90;;
40170;SDS011;37650;52.790;18.268;2023-07-09T19:50:55;4.50;;;1.90;;
40170;SDS011;37650;52.790;18.268;2023-07-09T19:54:17;12.90;;;9.50;;
40170;SDS011;37650;52.790;18.268;2023-07-09T19:57:41;26.90;;;20.00;;
40170;SDS011;37650;52.790;18.268;2023-07-09T20:01:04;20.40;;;15.80;;
40170;SDS011;37650;52.790;18.268;2023-07-09T20:04:31;13.70;;;10.40;;
40170;SDS011;37650;52.790;18.268;2023-07-09T20:07:53;9.20;;;5.80;;
40170;SDS011;37650;52.790;18.268;2023-07-09T20:11:15;5.60;;;3.40;;
40170;SDS011;37650;52.790;18.268;2023-07-09T20:14:36;8.00;;;3.10;;
40170;SDS011;37650;52.790;18.268;2023-07-09T20:17:58;7.10;;;3.20;;
40170;SDS011;37650;52.790;18.268;2023-07-09T20:21:21;4.00;;;2.60;;
40170;SDS011;37650;52.790;18.268;2023-07-09T20:24:45;4.60;;;2.50;;
40170;SDS011;37650;52.790;18.268;2023-07-09T20:28:17;4.60;;;2.80;;
40170;SDS011;37650;52.790;18.268;2023-07-09T20:31:47;6.50;;;2.40;;
40170;SDS011;37650;52.790;18.268;2023-07-09T20:35:14;6.50;;;3.90;;
40170;SDS011;37650;52.790;18.268;2023-07-09T20:38:41;10.00;;;7.30;;
40170;SDS011;37650;52.790;18.268;2023-07-09T20:42:02;12.50;;;8.00;;
40170;SDS011;37650;52.790;18.268;2023-07-09T20:45:24;8.60;;;6.20;;
40170;SDS011;37650;52.790;18.268;2023-07-09T20:48:49;7.10;;;4.40;;
40170;SDS011;37650;52.790;18.268;2023-07-09T20:52:10;7.30;;;3.90;;
40170;SDS011;37650;52.790;18.268;2023-07-09T20:55:33;5.60;;;2.50;;
40170;SDS011;37650;52.790;18.268;2023-07-09T20:58:54;6.60;;;2.80;;
40170;SDS011;37650;52.790;18.268;2023-07-09T21:05:47;6.20;;;2.50;;
40170;SDS011;37650;52.790;18.268;2023-07-09T21:09:17;6.00;;;2.60;;
40170;SDS011;37650;52.790;18.268;2023-07-09T21:12:41;5.20;;;2.60;;
40170;SDS011;37650;52.790;18.268;2023-07-09T21:16:04;4.30;;;2.30;;
40170;SDS011;37650;52.790;18.268;2023-07-09T21:19:38;7.50;;;3.00;;
40170;SDS011;37650;52.790;18.268;2023-07-09T21:23:00;5.90;;;2.80;;
40170;SDS011;37650;52.790;18.268;2023-07-09T21:26:21;7.00;;;3.30;;
40170;SDS011;37650;52.790;18.268;2023-07-09T21:29:42;5.80;;;2.60;;
40170;SDS011;37650;52.790;18.268;2023-07-09T21:33:04;8.10;;;3.00;;
40170;SDS011;37650;52.790;18.268;2023-07-09T21:36:26;9.40;;;3.30;;
40170;SDS011;37650;52.790;18.268;2023-07-09T21:39:47;7.30;;;3.20;;
40170;SDS011;37650;52.790;18.268;2023-07-09T21:43:09;7.80;;;2.80;;
40170;SDS011;37650;52.790;18.268;2023-07-09T21:46:30;4.00;;;2.60;;
40170;SDS011;37650;52.790;18.268;2023-07-09T21:49:51;8.40;;;3.30;;